Time;durP1;ratioP1;P1;durP2;ratioP2;P2;SDS_P1;SDS_P2;PMS_P1;PMS_P2;Temp;Humidity;BMP_temperature;BMP_pressure;BME280_temperature;BME280_humidity;BME280_pressure;Samples;Min_cycle;Max_cycle;Signal;HPM_P1;HPM_P2
2021/03/18 00:00:49;;;;;;;8.32;4.40;;;1.80;81.70;;;;;;5015780;28;20116;-74
2021/03/18 00:03:30;;;;;;;6.25;4.82;;;1.80;81.60;;;;;;5016651;28;20017;-74
2021/03/18 00:05:56;;;;;;;6.15;4.00;;;1.70;81.70;;;;;;5016718;28;20032;-75
2021/03/18 00:08:23;;;;;;;5.53;4.50;;;1.80;81.60;;;;;;4999959;28;20513;-75
2021/03/18 00:10:50;;;;;;;10.00;5.28;;;1.90;81.60;;;;;;5016395;28;20030;-75
2021/03/18 00:13:16;;;;;;;9.43;4.43;;;2.00;81.40;;;;;;5016322;28;20053;-76
2021/03/18 00:15:43;;;;;;;8.95;5.13;;;2.00;81.20;;;;;;5033857;28;20095;-76
2021/03/18 00:18:14;;;;;;;6.38;4.65;;;2.10;81.10;;;;;;5033779;28;20029;-76
2021/03/18 00:20:41;;;;;;;6.70;4.28;;;2.00;81.20;;;;;;5016068;28;20034;-76
2021/03/18 00:23:07;;;;;;;8.25;5.10;;;2.00;80.90;;;;;;5015810;28;20029;-76
2021/03/18 00:25:33;;;;;;;6.18;4.32;;;2.00;81.00;;;;;;5033601;28;20052;-77
2021/03/18 00:27:59;;;;;;;5.50;3.80;;;2.00;81.00;;;;;;5015464;28;20064;-76
2021/03/18 00:30:26;;;;;;;7.90;4.75;;;2.10;81.00;;;;;;5015524;28;20033;-76
2021/03/18 00:32:53;;;;;;;7.60;4.22;;;2.10;80.90;;;;;;5033701;28;20061;-76
2021/03/18 00:35:20;;;;;;;8.48;4.10;;;2.20;80.70;;;;;;5015377;28;20394;-75
2021/03/18 00:37:47;;;;;;;9.15;5.13;;;2.20;80.60;;;;;;5015648;28;20436;-74
2021/03/18 00:40:21;;;;;;;12.48;4.60;;;2.20;80.60;;;;;;5015598;28;20025;-74
2021/03/18 00:43:03;;;;;;;11.27;4.35;;;2.20;80.20;;;;;;5015771;28;20026;-76
2021/03/18 00:45:31;;;;;;;5.28;4.43;;;2.30;81.00;;;;;;5028724;28;20056;-76
2021/03/18 00:47:57;;;;;;;6.95;4.13;;;2.30;80.00;;;;;;5015991;28;20029;-75
2021/03/18 00:50:51;;;;;;;6.18;4.00;;;2.30;79.90;;;;;;5033278;28;20470;-75
2021/03/18 00:53:21;;;;;;;7.68;4.13;;;2.30;80.20;;;;;;5032649;28;20033;-75
2021/03/18 00:55:47;;;;;;;5.80;4.05;;;2.30;80.40;;;;;;5015241;28;20036;-74
2021/03/18 00:58:14;;;;;;;6.63;4.15;;;2.30;80.30;;;;;;5015244;28;20386;-75
2021/03/18 01:00:45;;;;;;;8.07;4.30;;;2.20;79.70;;;;;;5015509;28;20102;-76
2021/03/18 01:03:12;;;;;;;9.65;3.85;;;2.20;79.30;;;;;;5015459;28;20100;-75
2021/03/18 01:05:42;;;;;;;7.80;4.05;;;2.10;78.90;;;;;;5015470;28;20036;-76
2021/03/18 01:08:09;;;;;;;5.80;3.28;;;2.10;78.70;;;;;;5015133;28;20496;-76
2021/03/18 01:10:48;;;;;;;4.63;3.47;;;2.10;78.50;;;;;;5014302;28;20463;-76
2021/03/18 01:13:19;;;;;;;8.68;3.92;;;2.10;78.20;;;;;;5015048;28;20017;-76
2021/03/18 01:15:49;;;;;;;8.02;4.07;;;2.10;78.20;;;;;;5032727;28;20025;-74
2021/03/18 01:18:17;;;;;;;8.68;4.65;;;2.10;78.20;;;;;;5014978;28;20018;-77
2021/03/18 01:20:44;;;;;;;5.80;4.22;;;2.00;78.40;;;;;;5032492;28;20048;-77
2021/03/18 01:23:09;;;;;;;10.50;4.80;;;1.80;79.20;;;;;;5032702;28;20029;-75
2021/03/18 01:25:35;;;;;;;7.38;5.15;;;1.80;79.60;;;;;;5032714;28;20075;-76
2021/03/18 01:28:01;;;;;;;7.70;4.95;;;1.80;79.50;;;;;;5015089;28;20435;-76
2021/03/18 01:30:27;;;;;;;9.65;4.57;;;1.80;79.60;;;;;;5032684;28;20042;-74
2021/03/18 01:32:52;;;;;;;7.57;4.18;;;1.80;79.50;;;;;;5015124;28;20437;-77
2021/03/18 01:35:21;;;;;;;10.50;4.50;;;1.80;79.30;;;;;;5014763;28;20045;-77
2021/03/18 01:37:47;;;;;;;7.07;4.18;;;1.90;79.20;;;;;;5032787;28;20017;-75
2021/03/18 01:40:26;;;;;;;7.93;4.88;;;1.90;79.10;;;;;;5032222;28;20049;-74
2021/03/18 01:42:52;;;;;;;9.60;4.97;;;1.90;79.10;;;;;;5014770;28;20510;-74
2021/03/18 01:45:19;;;;;;;11.90;5.95;;;1.80;79.50;;;;;;5014560;28;20026;-76
2021/03/18 01:47:48;;;;;;;9.82;5.53;;;1.80;80.20;;;;;;5014902;28;20026;-75
2021/03/18 01:50:16;;;;;;;9.73;6.22;;;1.70;81.10;;;;;;5032602;28;20433;-76
2021/03/18 01:52:43;;;;;;;10.52;5.93;;;1.60;81.60;;;;;;5014423;28;20108;-76
2021/03/18 01:55:13;;;;;;;10.63;5.82;;;1.70;82.00;;;;;;5032479;28;20029;-76
2021/03/18 01:57:39;;;;;;;11.05;6.78;;;1.60;82.20;;;;;;5014456;28;20022;-75
2021/03/18 02:00:07;;;;;;;11.30;6.60;;;1.50;82.40;;;;;;5014540;28;20120;-76
2021/03/18 02:02:34;;;;;;;11.70;6.53;;;1.60;82.70;;;;;;5014184;28;20385;-75
2021/03/18 02:05:00;;;;;;;11.38;5.85;;;1.50;83.10;;;;;;5014537;28;20021;-76
2021/03/18 02:07:26;;;;;;;8.88;5.78;;;1.40;83.50;;;;;;5014227;28;20026;-76
2021/03/18 02:09:51;;;;;;;9.23;5.00;;;1.30;84.00;;;;;;5014485;28;20021;-77
2021/03/18 02:12:17;;;;;;;7.95;5.20;;;1.20;84.30;;;;;;5016521;28;20108;-76
2021/03/18 02:14:43;;;;;;;9.90;5.93;;;1.20;84.60;;;;;;5026836;28;20029;-77
2021/03/18 02:17:13;;;;;;;6.47;4.82;;;1.30;85.00;;;;;;5020403;28;20053;-76
2021/03/18 02:20:06;;;;;;;10.32;5.13;;;1.40;84.90;;;;;;5014418;28;20112;-76
2021/03/18 02:22:59;;;;;;;8.30;5.22;;;1.50;84.50;;;;;;5015606;28;20130;-76
2021/03/18 02:25:30;;;;;;;10.40;5.65;;;1.50;84.20;;;;;;5018228;28;20130;-76
2021/03/18 02:28:35;;;;;;;6.82;5.30;;;1.60;83.70;;;;;;5017995;28;20022;-76
2021/03/18 02:31:20;;;;;;;10.93;5.85;;;1.70;83.40;;;;;;5035950;28;20029;-76
2021/03/18 02:34:37;;;;;;;6.20;3.85;;;1.70;83.10;;;;;;5035873;28;20026;-76
2021/03/18 02:37:13;;;;;;;7.95;5.38;;;1.70;82.90;;;;;;4974969;28;20069;-76
2021/03/18 02:39:51;;;;;;;9.15;5.97;;;1.70;82.80;;;;;;5035821;28;20037;-75
2021/03/18 02:42:21;;;;;;;8.77;6.25;;;1.70;82.70;;;;;;5017925;28;20033;-75
2021/03/18 02:44:51;;;;;;;11.88;7.85;;;1.70;82.50;;;;;;5017756;28;20033;-75
2021/03/18 02:47:21;;;;;;;15.10;6.95;;;1.60;82.40;;;;;;5001986;28;20096;-75
2021/03/18 02:49:49;;;;;;;13.77;7.80;;;1.60;82.60;;;;;;5017894;28;20032;-76
2021/03/18 02:52:19;;;;;;;11.13;7.38;;;1.60;82.80;;;;;;5017135;28;20057;-75
2021/03/18 02:54:46;;;;;;;13.23;7.75;;;1.60;83.10;;;;;;5017549;28;20549;-76
2021/03/18 02:57:16;;;;;;;11.65;7.50;;;1.60;82.90;;;;;;5017459;28;20041;-75
2021/03/18 02:59:43;;;;;;;14.05;7.07;;;1.60;82.60;;;;;;5017458;28;20112;-76
2021/03/18 03:02:20;;;;;;;10.63;7.00;;;1.60;82.40;;;;;;5017312;28;20033;-77
2021/03/18 03:04:47;;;;;;;10.38;6.68;;;1.70;82.30;;;;;;5035463;28;20466;-75
2021/03/18 03:07:16;;;;;;;11.18;7.28;;;1.70;82.00;;;;;;5017361;28;20033;-74
2021/03/18 03:09:45;;;;;;;11.65;7.20;;;1.80;81.80;;;;;;5017521;28;20160;-74
2021/03/18 03:12:13;;;;;;;10.98;7.07;;;1.70;81.70;;;;;;5017301;28;20112;-75
2021/03/18 03:14:42;;;;;;;15.77;7.57;;;1.80;81.50;;;;;;5017188;28;20028;-75
2021/03/18 03:17:10;;;;;;;9.93;7.07;;;1.80;81.30;;;;;;5017195;28;20025;-76
2021/03/18 03:19:39;;;;;;;10.05;6.60;;;1.80;81.30;;;;;;5000928;28;20029;-76
2021/03/18 03:22:06;;;;;;;12.73;7.88;;;1.80;81.40;;;;;;5016543;28;20037;-75
2021/03/18 03:24:34;;;;;;;11.13;7.10;;;1.80;81.50;;;;;;5017013;28;20462;-75
2021/03/18 03:27:00;;;;;;;13.38;8.00;;;1.70;81.70;;;;;;5017069;28;20029;-76
2021/03/18 03:29:26;;;;;;;13.43;7.13;;;1.60;82.00;;;;;;5017217;28;20466;-76
2021/03/18 03:31:52;;;;;;;13.98;7.70;;;1.60;82.20;;;;;;5017312;28;20044;-76
2021/03/18 03:34:19;;;;;;;14.85;8.65;;;1.50;82.40;;;;;;5033742;28;20025;-75
2021/03/18 03:36:45;;;;;;;14.30;8.43;;;1.40;82.80;;;;;;5016757;28;20053;-76
2021/03/18 03:39:11;;;;;;;13.88;8.38;;;1.30;83.10;;;;;;5016758;28;20041;-77
2021/03/18 03:41:37;;;;;;;12.00;7.85;;;1.30;83.40;;;;;;5016639;28;20029;-76
2021/03/18 03:44:05;;;;;;;20.73;8.70;;;1.50;83.60;;;;;;5016951;28;20144;-77
2021/03/18 03:46:31;;;;;;;15.73;9.10;;;1.50;83.10;;;;;;5016878;28;20025;-75
2021/03/18 03:48:57;;;;;;;14.55;8.05;;;1.50;82.90;;;;;;5016678;28;20057;-78
2021/03/18 03:51:24;;;;;;;14.95;9.05;;;1.60;82.90;;;;;;5034516;28;20069;-76
2021/03/18 03:53:56;;;;;;;17.15;9.82;;;1.60;82.70;;;;;;5016689;28;20516;-76
2021/03/18 03:56:24;;;;;;;16.88;9.50;;;1.60;82.10;;;;;;5000179;28;20048;-75
2021/03/18 03:58:53;;;;;;;15.85;9.38;;;1.50;82.00;;;;;;5034397;28;20018;-76
2021/03/18 04:01:27;;;;;;;17.77;9.63;;;1.60;82.00;;;;;;5034309;28;20030;-76
2021/03/18 04:04:12;;;;;;;17.02;9.77;;;1.60;81.70;;;;;;5016522;28;20032;-75
2021/03/18 04:06:39;;;;;;;13.57;8.80;;;1.50;81.90;;;;;;5016334;28;20022;-76
2021/03/18 04:09:07;;;;;;;16.67;10.02;;;1.40;82.30;;;;;;5034607;28;20369;-76
2021/03/18 04:11:38;;;;;;;20.02;10.15;;;1.50;82.60;;;;;;5016304;28;20025;-75
2021/03/18 04:14:05;;;;;;;14.20;8.75;;;1.40;82.50;;;;;;5016774;28;20470;-75
2021/03/18 04:16:32;;;;;;;16.38;9.70;;;1.50;82.70;;;;;;5034284;28;20022;-78
2021/03/18 04:18:59;;;;;;;16.92;10.02;;;1.50;82.70;;;;;;5018410;28;20033;-75
2021/03/18 04:21:28;;;;;;;16.13;9.73;;;1.60;82.30;;;;;;5021444;28;20044;-76
2021/03/18 04:23:54;;;;;;;17.08;10.40;;;1.60;82.10;;;;;;5019988;28;20102;-74
2021/03/18 04:26:21;;;;;;;16.23;10.23;;;1.60;82.10;;;;;;5018231;28;20025;-75
2021/03/18 04:28:48;;;;;;;18.67;10.27;;;1.70;81.70;;;;;;5033866;28;20026;-76
2021/03/18 04:31:14;;;;;;;14.80;9.85;;;1.70;81.60;;;;;;5033851;28;20482;-75
2021/03/18 04:33:40;;;;;;;17.90;10.88;;;1.70;81.60;;;;;;5034078;28;20025;-75
2021/03/18 04:36:07;;;;;;;15.35;10.43;;;1.80;81.40;;;;;;5033638;28;20053;-75
2021/03/18 04:38:33;;;;;;;18.92;11.40;;;1.70;81.00;;;;;;5033884;28;20370;-75
2021/03/18 04:41:00;;;;;;;20.65;12.32;;;1.60;80.90;;;;;;5033752;28;20042;-75
2021/03/18 04:43:26;;;;;;;23.08;13.50;;;1.50;81.20;;;;;;5033592;28;20094;-75
2021/03/18 04:45:54;;;;;;;23.48;14.05;;;1.50;81.60;;;;;;5033659;28;20549;-75
2021/03/18 04:48:22;;;;;;;25.50;14.65;;;1.50;81.80;;;;;;5033711;28;20030;-75
2021/03/18 04:50:48;;;;;;;28.77;14.40;;;1.50;81.90;;;;;;5015595;28;20371;-75
2021/03/18 04:53:14;;;;;;;24.30;14.52;;;1.50;81.90;;;;;;5033459;28;20024;-75
2021/03/18 04:55:40;;;;;;;22.88;12.40;;;1.50;82.20;;;;;;5033426;28;20025;-75
2021/03/18 04:58:08;;;;;;;24.70;12.80;;;1.60;82.20;;;;;;5033093;28;20021;-75
2021/03/18 05:00:36;;;;;;;17.65;10.50;;;1.70;82.10;;;;;;5032819;28;20087;-76
2021/03/18 05:03:05;;;;;;;17.05;10.82;;;1.70;81.80;;;;;;5032866;28;20026;-75
2021/03/18 05:05:32;;;;;;;14.85;9.70;;;1.70;81.60;;;;;;5032949;28;20080;-75
2021/03/18 05:07:59;;;;;;;18.20;11.48;;;1.70;81.50;;;;;;5032982;28;20113;-75
2021/03/18 05:10:27;;;;;;;17.10;11.20;;;1.70;81.30;;;;;;5033031;28;20032;-75
2021/03/18 05:12:56;;;;;;;21.10;12.07;;;1.70;81.20;;;;;;5032883;28;20025;-77
2021/03/18 05:15:23;;;;;;;19.30;11.60;;;1.70;80.90;;;;;;5032880;28;20025;-74
2021/03/18 05:17:49;;;;;;;19.70;11.43;;;1.70;80.90;;;;;;5032951;28;20025;-74
2021/03/18 05:20:18;;;;;;;19.40;11.82;;;1.70;81.10;;;;;;5033011;28;20112;-76
2021/03/18 05:22:47;;;;;;;19.73;11.57;;;1.70;81.10;;;;;;5032990;28;20025;-74
2021/03/18 05:25:15;;;;;;;22.85;12.65;;;1.70;81.20;;;;;;5033091;28;20071;-75
2021/03/18 05:27:42;;;;;;;16.42;10.60;;;1.70;81.10;;;;;;5033113;28;20512;-76
2021/03/18 05:30:10;;;;;;;18.25;11.85;;;1.60;81.90;;;;;;5036447;28;20037;-79
2021/03/18 05:32:36;;;;;;;18.00;11.73;;;1.70;81.20;;;;;;5034681;28;20036;-78
2021/03/18 05:35:04;;;;;;;24.52;13.50;;;1.60;81.00;;;;;;5032987;28;20449;-81
2021/03/18 05:37:30;;;;;;;22.85;13.32;;;1.60;81.30;;;;;;5033049;28;20040;-79
2021/03/18 05:39:55;;;;;;;20.05;13.02;;;1.50;81.50;;;;;;5033271;28;20105;-80
2021/03/18 05:42:21;;;;;;;20.10;12.25;;;1.60;81.50;;;;;;5033114;28;20034;-79
2021/03/18 05:44:47;;;;;;;21.98;12.63;;;1.70;81.40;;;;;;5033323;28;20034;-79
2021/03/18 05:47:13;;;;;;;20.65;12.85;;;1.70;81.40;;;;;;5015434;28;20033;-79
2021/03/18 05:49:39;;;;;;;22.55;13.05;;;1.80;81.20;;;;;;5033143;28;20021;-79
2021/03/18 05:52:08;;;;;;;17.15;11.23;;;1.70;80.90;;;;;;5045508;28;20021;-77
2021/03/18 05:54:34;;;;;;;19.20;12.25;;;1.80;80.70;;;;;;5035671;28;20053;-80
2021/03/18 05:57:01;;;;;;;19.98;12.18;;;1.80;80.60;;;;;;5036150;28;20025;-78
2021/03/18 05:59:28;;;;;;;21.50;12.57;;;1.80;80.60;;;;;;5022007;28;20053;-78
2021/03/18 06:01:55;;;;;;;23.38;13.05;;;1.80;80.60;;;;;;5039723;28;20167;-78
2021/03/18 06:04:22;;;;;;;19.88;12.93;;;1.80;80.70;;;;;;5039672;28;20022;-79
2021/03/18 06:06:49;;;;;;;24.48;12.35;;;1.80;80.60;;;;;;5039581;28;20032;-79
2021/03/18 06:09:14;;;;;;;24.58;13.15;;;1.80;80.20;;;;;;5039513;28;20017;-80
2021/03/18 06:11:40;;;;;;;20.10;12.35;;;1.90;80.20;;;;;;5040242;28;20038;-80
2021/03/18 06:14:06;;;;;;;27.77;15.07;;;2.00;80.10;;;;;;5042595;28;20028;-78
2021/03/18 06:16:32;;;;;;;20.98;13.50;;;2.00;79.90;;;;;;5041780;28;20021;-79
2021/03/18 06:19:00;;;;;;;21.27;13.40;;;2.00;79.90;;;;;;5021737;28;20383;-78
2021/03/18 06:21:42;;;;;;;21.15;13.60;;;2.10;79.90;;;;;;5031919;28;20060;-76
2021/03/18 06:24:08;;;;;;;25.15;13.13;;;2.00;79.50;;;;;;5040520;28;20431;-77
2021/03/18 06:26:35;;;;;;;24.10;13.95;;;2.00;79.60;;;;;;5021102;28;20039;-80
2021/03/18 06:29:01;;;;;;;23.98;14.10;;;1.90;79.80;;;;;;5020755;28;20117;-79
2021/03/18 06:31:29;;;;;;;21.98;13.45;;;2.00;79.90;;;;;;5041777;28;20053;-80
2021/03/18 06:33:55;;;;;;;27.42;13.98;;;2.00;79.90;;;;;;5040158;28;20030;-80
2021/03/18 06:36:24;;;;;;;25.42;14.27;;;2.10;79.80;;;;;;5039953;28;20056;-81
2021/03/18 06:39:08;;;;;;;21.00;13.27;;;2.20;80.30;;;;;;5023837;28;20036;-79
2021/03/18 06:41:39;;;;;;;21.52;13.90;;;2.20;79.50;;;;;;5044818;28;20029;-79
2021/03/18 06:44:17;;;;;;;21.73;14.80;;;2.30;80.20;;;;;;5042426;28;20134;-80
2021/03/18 06:46:42;;;;;;;24.15;14.25;;;2.40;79.40;;;;;;5042612;28;20025;-79
2021/03/18 06:49:16;;;;;;;24.00;15.00;;;2.40;78.10;;;;;;5031824;28;20022;-80
2021/03/18 06:51:43;;;;;;;22.90;13.75;;;2.40;77.60;;;;;;5046709;28;20209;-79
2021/03/18 06:54:19;;;;;;;23.17;14.52;;;2.30;77.70;;;;;;5046471;28;20029;-79
2021/03/18 06:56:59;;;;;;;23.25;13.63;;;2.20;78.00;;;;;;5042475;28;20080;-80
2021/03/18 06:59:31;;;;;;;25.05;14.63;;;2.30;78.30;;;;;;5042006;28;20014;-77
2021/03/18 07:02:19;;;;;;;24.52;14.48;;;2.20;78.20;;;;;;5042174;28;20116;-77
2021/03/18 07:04:50;;;;;;;24.02;14.90;;;2.20;78.70;;;;;;5042025;28;20018;-78
2021/03/18 07:07:19;;;;;;;25.10;14.68;;;2.30;78.70;;;;;;5041275;28;20036;-76
2021/03/18 07:09:46;;;;;;;25.73;15.38;;;2.40;78.70;;;;;;5036592;28;20025;-77
2021/03/18 07:12:15;;;;;;;24.13;14.75;;;2.50;78.30;;;;;;5037703;28;20048;-76
2021/03/18 07:14:47;;;;;;;27.67;16.60;;;2.50;77.80;;;;;;5037174;28;20025;-76
2021/03/18 07:17:35;;;;;;;26.08;16.60;;;2.50;77.70;;;;;;5037913;28;20096;-76
2021/03/18 07:20:16;;;;;;;25.33;15.93;;;2.50;77.50;;;;;;5037508;28;20029;-77
2021/03/18 07:22:53;;;;;;;28.67;16.30;;;2.50;77.60;;;;;;5036868;28;20029;-76
2021/03/18 07:25:22;;;;;;;28.42;17.20;;;2.60;77.80;;;;;;5037297;28;20025;-77
2021/03/18 07:27:50;;;;;;;24.17;16.15;;;2.50;77.70;;;;;;5036590;28;20040;-76
2021/03/18 07:30:37;;;;;;;25.38;16.33;;;2.30;78.60;;;;;;5036914;28;20117;-77
2021/03/18 07:33:04;;;;;;;26.80;16.15;;;2.20;79.50;;;;;;5037022;28;20053;-75
2021/03/18 07:35:30;;;;;;;25.05;16.42;;;2.20;79.90;;;;;;5036484;28;20129;-77
2021/03/18 07:37:56;;;;;;;24.73;15.98;;;2.20;80.00;;;;;;5036413;28;20052;-77
2021/03/18 07:40:24;;;;;;;28.65;16.80;;;2.30;79.90;;;;;;5035739;28;20044;-77
2021/03/18 07:42:51;;;;;;;26.20;15.30;;;2.30;79.40;;;;;;5035711;28;20017;-75
2021/03/18 07:45:19;;;;;;;24.92;15.70;;;2.30;79.00;;;;;;5035503;28;20061;-79
2021/03/18 07:47:46;;;;;;;25.73;15.00;;;2.30;79.60;;;;;;5035484;28;20022;-79
2021/03/18 07:50:14;;;;;;;25.58;16.00;;;2.30;79.90;;;;;;5035946;28;20037;-76
2021/03/18 07:52:43;;;;;;;25.60;15.85;;;2.30;79.80;;;;;;5035400;28;20620;-76
2021/03/18 07:55:11;;;;;;;27.13;15.88;;;2.30;79.60;;;;;;5035941;28;20030;-77
2021/03/18 07:57:42;;;;;;;28.00;16.05;;;2.20;79.40;;;;;;5035364;28;20025;-76
2021/03/18 08:00:12;;;;;;;31.88;17.15;;;2.10;79.90;;;;;;5034713;28;20029;-78
2021/03/18 08:02:38;;;;;;;27.83;15.85;;;2.10;80.10;;;;;;5017504;28;20425;-74
2021/03/18 08:05:05;;;;;;;22.90;14.40;;;2.00;79.80;;;;;;5034859;28;20033;-79
2021/03/18 08:07:41;;;;;;;23.90;13.60;;;1.80;80.00;;;;;;5035409;28;20017;-84
2021/03/18 08:10:14;;;;;;;22.90;12.55;;;1.70;80.30;;;;;;5035095;28;20453;-79
2021/03/18 08:12:43;;;;;;;24.75;13.65;;;1.70;80.90;;;;;;5034746;28;20167;-79
2021/03/18 08:15:18;;;;;;;26.70;14.57;;;1.80;81.30;;;;;;5034779;28;20021;-79
2021/03/18 08:17:44;;;;;;;;;;;1.70;81.80;;;;;;5034881;28;20072;-78
2021/03/18 08:20:09;;;;;;;27.02;14.80;;;1.80;81.90;;;;;;5034434;28;19905;-77
2021/03/18 08:22:35;;;;;;;25.27;14.55;;;1.80;81.90;;;;;;5035233;28;20108;-77
2021/03/18 08:25:20;;;;;;;23.90;13.77;;;2.00;82.00;;;;;;5035310;28;20021;-78
2021/03/18 08:27:45;;;;;;;25.52;13.95;;;2.30;81.80;;;;;;5035199;28;20025;-79
2021/03/18 08:30:23;;;;;;;27.55;14.60;;;2.50;80.80;;;;;;5035252;28;20359;-79
2021/03/18 08:32:49;;;;;;;27.83;13.32;;;2.60;79.70;;;;;;5034871;28;20021;-80
2021/03/18 08:35:26;;;;;;;19.70;11.85;;;2.90;79.60;;;;;;5034591;28;20051;-78
2021/03/18 08:37:55;;;;;;;20.42;11.23;;;3.00;78.40;;;;;;5034720;28;20096;-78
2021/03/18 08:40:20;;;;;;;30.83;13.98;;;3.30;79.90;;;;;;5034624;28;20116;-78
2021/03/18 08:42:50;;;;;;;21.15;12.55;;;4.40;92.20;;;;;;5034875;28;20056;-77
2021/03/18 08:45:18;;;;;;;20.83;12.57;;;4.60;87.20;;;;;;5034578;28;20426;-77
2021/03/18 08:47:48;;;;;;;22.58;12.10;;;5.10;83.30;;;;;;5033847;28;20103;-76
2021/03/18 08:50:34;;;;;;;20.38;11.82;;;5.40;78.50;;;;;;5033925;28;20108;-76
2021/03/18 08:53:02;;;;;;;15.75;10.73;;;5.50;76.40;;;;;;5033887;28;20104;-76
2021/03/18 08:55:37;;;;;;;15.52;10.27;;;5.60;73.70;;;;;;5033569;28;20390;-78
2021/03/18 08:58:04;;;;;;;14.32;8.95;;;5.70;73.30;;;;;;5033700;28;20382;-76
2021/03/18 09:00:31;;;;;;;14.85;9.85;;;6.20;73.80;;;;;;5033396;28;20030;-76
2021/03/18 09:02:57;;;;;;;14.40;9.38;;;6.40;70.30;;;;;;5033987;28;20151;-76
2021/03/18 09:05:24;;;;;;;16.98;10.45;;;6.30;67.70;;;;;;5033858;28;20120;-77
2021/03/18 09:07:57;;;;;;;19.00;11.52;;;6.20;67.60;;;;;;5033701;28;20025;-77
2021/03/18 09:10:28;;;;;;;19.90;10.82;;;6.30;67.50;;;;;;5033727;28;20033;-78
2021/03/18 09:12:59;;;;;;;15.43;10.32;;;6.30;66.70;;;;;;5033458;28;20025;-78
2021/03/18 09:15:27;;;;;;;14.48;10.30;;;6.30;65.90;;;;;;5033234;28;20017;-77
2021/03/18 09:17:56;;;;;;;14.10;9.20;;;6.20;64.50;;;;;;5033446;28;20029;-77
2021/03/18 09:20:26;;;;;;;18.40;9.95;;;6.50;65.30;;;;;;5033229;28;20030;-77
2021/03/18 09:22:53;;;;;;;15.70;10.93;;;7.00;64.00;;;;;;5033484;28;20021;-81
2021/03/18 09:25:24;;;;;;;15.38;10.27;;;7.10;59.40;;;;;;5033238;28;20596;-80
2021/03/18 09:27:50;;;;;;;14.00;10.10;;;6.50;59.80;;;;;;5033395;28;20100;-81
2021/03/18 09:30:20;;;;;;;13.88;9.82;;;6.70;60.40;;;;;;5033452;28;20104;-81
2021/03/18 09:32:45;;;;;;;17.35;10.98;;;6.80;58.10;;;;;;5031898;28;20507;-80
2021/03/18 09:35:13;;;;;;;18.23;11.00;;;5.80;58.30;;;;;;5014759;28;20181;-80
2021/03/18 09:37:39;;;;;;;17.70;10.55;;;5.50;60.30;;;;;;5015385;28;20022;-82
2021/03/18 09:40:09;;;;;;;15.25;10.38;;;5.00;62.10;;;;;;5015417;28;20079;-80
2021/03/18 09:42:34;;;;;;;17.35;10.80;;;4.80;63.20;;;;;;5017220;28;20513;-76
2021/03/18 09:45:00;;;;;;;16.70;10.55;;;4.50;64.60;;;;;;5051973;28;20064;-76
2021/03/18 09:47:26;;;;;;;18.45;11.10;;;4.10;65.40;;;;;;5035584;28;20530;-83
2021/03/18 09:49:52;;;;;;;22.33;12.93;;;3.80;67.00;;;;;;5036888;28;20477;-82
2021/03/18 09:52:27;;;;;;;19.20;11.57;;;3.70;69.10;;;;;;5037095;28;20025;-84
2021/03/18 09:54:53;;;;;;;18.67;11.48;;;3.60;69.70;;;;;;5035173;28;20033;-76
2021/03/18 09:57:20;;;;;;;16.25;11.45;;;3.50;69.80;;;;;;5052822;28;20059;-78
2021/03/18 09:59:50;;;;;;;19.27;11.43;;;3.50;69.10;;;;;;5034826;28;20120;-77
2021/03/18 10:02:17;;;;;;;22.75;12.18;;;3.60;68.40;;;;;;5052627;28;20083;-77
2021/03/18 10:04:43;;;;;;;17.90;11.80;;;3.40;68.70;;;;;;5052576;28;20029;-78
2021/03/18 10:07:10;;;;;;;19.17;12.32;;;3.40;69.30;;;;;;5052502;28;20100;-79
2021/03/18 10:09:39;;;;;;;21.88;13.23;;;3.40;70.20;;;;;;5052519;28;20021;-80
2021/03/18 10:12:20;;;;;;;17.25;11.57;;;3.60;71.50;;;;;;5052544;28;20025;-79
2021/03/18 10:15:02;;;;;;;17.42;11.23;;;4.10;72.00;;;;;;5052331;28;20029;-79
2021/03/18 10:17:37;;;;;;;14.55;10.48;;;5.00;69.40;;;;;;5052528;28;20029;-78
2021/03/18 10:20:14;;;;;;;16.50;11.43;;;5.60;65.80;;;;;;5052000;28;20124;-79
2021/03/18 10:22:48;;;;;;;17.02;11.20;;;6.00;63.00;;;;;;5052319;28;20043;-79
2021/03/18 10:25:18;;;;;;;21.05;11.45;;;5.80;62.30;;;;;;5052273;28;20028;-79
2021/03/18 10:27:49;;;;;;;20.33;11.50;;;5.90;61.90;;;;;;5052111;28;20036;-79
2021/03/18 10:30:24;;;;;;;16.20;10.70;;;5.90;61.90;;;;;;5052935;28;20112;-79
2021/03/18 10:33:17;;;;;;;15.23;10.05;;;5.90;61.20;;;;;;5052002;28;20051;-77
2021/03/18 10:35:59;;;;;;;16.65;10.40;;;5.90;61.10;;;;;;5052241;28;20056;-77
2021/03/18 10:38:29;;;;;;;13.70;10.30;;;5.90;60.50;;;;;;5052315;28;20369;-77
2021/03/18 10:40:56;;;;;;;17.85;10.93;;;5.90;60.10;;;;;;5052968;28;20075;-78
2021/03/18 10:43:34;;;;;;;16.85;10.75;;;5.90;60.30;;;;;;5035733;28;20477;-79
2021/03/18 10:46:05;;;;;;;18.50;11.48;;;5.90;60.60;;;;;;5056363;28;20477;-80
2021/03/18 10:48:33;;;;;;;13.55;8.93;;;6.00;60.80;;;;;;5057848;28;20059;-78
2021/03/18 10:51:14;;;;;;;13.65;8.98;;;6.10;60.70;;;;;;5041755;28;20059;-78
2021/03/18 10:53:44;;;;;;;11.98;8.60;;;6.30;59.50;;;;;;5059975;28;20081;-77
2021/03/18 10:56:12;;;;;;;16.02;7.80;;;6.50;57.00;;;;;;5058037;28;20096;-75
2021/03/18 10:58:39;;;;;;;12.40;8.07;;;6.70;56.90;;;;;;5055818;28;20060;-77
2021/03/18 11:01:22;;;;;;;11.35;7.93;;;7.00;56.20;;;;;;5055874;28;20176;-75
2021/03/18 11:03:49;;;;;;;10.05;6.82;;;7.20;53.60;;;;;;5056025;28;20427;-77
2021/03/18 11:06:19;;;;;;;9.88;7.00;;;7.40;52.40;;;;;;5055639;28;20029;-79
2021/03/18 11:08:53;;;;;;;14.35;7.65;;;7.60;51.90;;;;;;5038099;28;20025;-78
2021/03/18 11:11:23;;;;;;;12.20;7.82;;;7.70;51.10;;;;;;5055780;28;20017;-78
2021/03/18 11:13:49;;;;;;;12.68;7.93;;;7.90;51.50;;;;;;5038035;28;20171;-77
2021/03/18 11:16:23;;;;;;;10.18;7.22;;;7.90;50.70;;;;;;5056655;28;20362;-78
2021/03/18 11:18:55;;;;;;;11.40;7.35;;;8.00;51.20;;;;;;5055172;28;20111;-79
2021/03/18 11:21:32;;;;;;;9.90;7.47;;;8.00;51.20;;;;;;5054770;28;20040;-77
2021/03/18 11:24:08;;;;;;;9.65;7.63;;;8.00;50.50;;;;;;5055381;28;20021;-76
2021/03/18 11:26:36;;;;;;;12.93;8.32;;;7.90;50.20;;;;;;5055274;28;20029;-76
2021/03/18 11:29:04;;;;;;;13.32;7.93;;;7.70;50.10;;;;;;5055301;28;20028;-76
2021/03/18 11:31:30;;;;;;;10.95;7.43;;;7.70;50.20;;;;;;5055362;28;20029;-77
2021/03/18 11:33:56;;;;;;;11.05;7.43;;;7.70;50.10;;;;;;5054911;28;20028;-77
2021/03/18 11:36:22;;;;;;;12.23;8.18;;;7.60;50.50;;;;;;5054955;28;20451;-75
2021/03/18 11:38:48;;;;;;;11.80;8.55;;;7.60;51.10;;;;;;5054715;28;20021;-76
2021/03/18 11:41:14;;;;;;;13.82;9.02;;;7.70;50.60;;;;;;5036320;28;20338;-77
2021/03/18 11:43:39;;;;;;;12.52;8.65;;;7.70;49.90;;;;;;5054686;28;20113;-76
2021/03/18 11:46:05;;;;;;;10.98;7.43;;;7.70;49.60;;;;;;5054836;28;20029;-77
2021/03/18 11:48:32;;;;;;;14.25;7.93;;;7.70;50.00;;;;;;5054338;28;20381;-76
2021/03/18 11:50:58;;;;;;;12.13;8.23;;;7.80;50.70;;;;;;5054353;28;20354;-77
2021/03/18 11:53:24;;;;;;;14.95;8.27;;;8.10;51.10;;;;;;5054260;28;20120;-76
2021/03/18 11:55:50;;;;;;;12.95;7.65;;;8.40;50.70;;;;;;5053584;28;20029;-75
2021/03/18 11:58:16;;;;;;;11.23;7.35;;;8.60;49.20;;;;;;5054271;28;20029;-75
2021/03/18 12:00:42;;;;;;;8.93;6.97;;;8.90;48.10;;;;;;5054628;28;20090;-73
2021/03/18 12:03:09;;;;;;;11.02;6.10;;;9.10;46.80;;;;;;5055007;28;20052;-77
2021/03/18 12:05:35;;;;;;;9.50;6.70;;;9.30;45.60;;;;;;5055539;28;20036;-77
2021/03/18 12:08:02;;;;;;;10.00;6.68;;;9.60;44.90;;;;;;5054434;28;20025;-78
2021/03/18 12:10:28;;;;;;;10.13;7.30;;;9.80;43.20;;;;;;5054067;28;20025;-75
2021/03/18 12:12:53;;;;;;;13.98;7.88;;;9.90;43.30;;;;;;5054217;28;20098;-75
2021/03/18 12:15:19;;;;;;;10.68;7.35;;;9.80;43.00;;;;;;5035980;28;20125;-73
2021/03/18 12:17:45;;;;;;;9.93;6.72;;;9.90;44.00;;;;;;5054117;28;20028;-75
2021/03/18 12:20:18;;;;;;;11.18;6.90;;;9.60;44.30;;;;;;5053907;28;20058;-76
2021/03/18 12:22:45;;;;;;;8.60;6.13;;;9.80;44.40;;;;;;5054059;28;20044;-76
2021/03/18 12:25:12;;;;;;;9.98;5.88;;;9.80;45.00;;;;;;5053811;28;20090;-77
2021/03/18 12:27:39;;;;;;;9.27;6.43;;;9.80;44.50;;;;;;5053861;28;20163;-75
2021/03/18 12:30:06;;;;;;;7.15;5.13;;;9.70;42.80;;;;;;5053628;28;20021;-73
2021/03/18 12:32:32;;;;;;;6.65;5.00;;;9.60;42.30;;;;;;5053815;28;20036;-76
2021/03/18 12:34:57;;;;;;;7.22;5.13;;;9.50;42.00;;;;;;5053866;28;20428;-76
2021/03/18 12:37:23;;;;;;;11.57;4.95;;;9.40;41.50;;;;;;5053630;28;20029;-77
2021/03/18 12:39:49;;;;;;;11.38;6.03;;;8.90;41.40;;;;;;5054136;28;20063;-76
2021/03/18 12:42:14;;;;;;;8.13;5.43;;;8.80;42.30;;;;;;5053517;28;20036;-76
2021/03/18 12:44:40;;;;;;;13.52;6.15;;;8.60;43.40;;;;;;5035718;28;20032;-76
2021/03/18 12:47:07;;;;;;;6.38;4.47;;;8.20;44.10;;;;;;5053624;28;20053;-76
2021/03/18 12:49:33;;;;;;;6.78;4.68;;;8.00;44.50;;;;;;5053963;28;20074;-77
2021/03/18 12:51:59;;;;;;;5.47;4.18;;;8.00;44.00;;;;;;5054002;28;20032;-77
2021/03/18 12:54:25;;;;;;;10.20;5.60;;;7.90;43.40;;;;;;5053982;28;20013;-76
2021/03/18 12:56:50;;;;;;;7.72;4.80;;;7.70;43.40;;;;;;5053459;28;20056;-76